sensor_id;sensor_type;location;lat;lon;timestamp;P1;durP1;ratioP1;P2;durP2;ratioP2
50379;SDS011;37474;59.468;18.040;2024-03-02T00:01:23;40.80;;;20.43;;
50379;SDS011;37474;59.468;18.040;2024-03-02T00:03:53;40.83;;;20.08;;
50379;SDS011;37474;59.468;18.040;2024-03-02T00:06:21;39.37;;;19.23;;
50379;SDS011;37474;59.468;18.040;2024-03-02T00:08:51;38.67;;;19.77;;
50379;SDS011;37474;59.468;18.040;2024-03-02T00:11:25;38.17;;;19.73;;
50379;SDS011;37474;59.468;18.040;2024-03-02T00:13:54;44.07;;;19.33;;
50379;SDS011;37474;59.468;18.040;2024-03-02T00:16:22;47.20;;;20.87;;
50379;SDS011;37474;59.468;18.040;2024-03-02T00:18:51;41.63;;;19.67;;
50379;SDS011;37474;59.468;18.040;2024-03-02T00:21:19;53.40;;;20.93;;
50379;SDS011;37474;59.468;18.040;2024-03-02T00:23:48;45.03;;;20.23;;
50379;SDS011;37474;59.468;18.040;2024-03-02T00:26:20;51.60;;;21.80;;
50379;SDS011;37474;59.468;18.040;2024-03-02T00:28:48;45.17;;;20.67;;
50379;SDS011;37474;59.468;18.040;2024-03-02T00:31:16;40.60;;;20.27;;
50379;SDS011;37474;59.468;18.040;2024-03-02T00:33:47;38.40;;;19.57;;
50379;SDS011;37474;59.468;18.040;2024-03-02T00:36:20;46.43;;;19.33;;
50379;SDS011;37474;59.468;18.040;2024-03-02T00:38:52;38.57;;;19.70;;
50379;SDS011;37474;59.468;18.040;2024-03-02T00:41:24;43.13;;;20.30;;
50379;SDS011;37474;59.468;18.040;2024-03-02T00:44:02;43.80;;;21.30;;
50379;SDS011;37474;59.468;18.040;2024-03-02T00:46:33;42.53;;;19.93;;
50379;SDS011;37474;59.468;18.040;2024-03-02T00:49:02;43.55;;;20.35;;
50379;SDS011;37474;59.468;18.040;2024-03-02T00:51:32;42.88;;;21.10;;
50379;SDS011;37474;59.468;18.040;2024-03-02T00:56:32;44.57;;;20.50;;
50379;SDS011;37474;59.468;18.040;2024-03-02T00:59:02;50.13;;;21.23;;
50379;SDS011;37474;59.468;18.040;2024-03-02T01:01:30;43.87;;;21.27;;
50379;SDS011;37474;59.468;18.040;2024-03-02T01:03:58;47.50;;;20.80;;
50379;SDS011;37474;59.468;18.040;2024-03-02T01:06:26;41.17;;;21.57;;
50379;SDS011;37474;59.468;18.040;2024-03-02T01:08:54;52.13;;;21.87;;
50379;SDS011;37474;59.468;18.040;2024-03-02T01:11:22;46.93;;;22.97;;
50379;SDS011;37474;59.468;18.040;2024-03-02T01:13:52;47.87;;;22.43;;
50379;SDS011;37474;59.468;18.040;2024-03-02T01:16:20;47.83;;;22.10;;
50379;SDS011;37474;59.468;18.040;2024-03-02T01:18:48;48.73;;;21.83;;
50379;SDS011;37474;59.468;18.040;2024-03-02T01:21:16;52.70;;;23.07;;
50379;SDS011;37474;59.468;18.040;2024-03-02T01:23:45;47.73;;;21.53;;
50379;SDS011;37474;59.468;18.040;2024-03-02T01:26:13;50.40;;;22.00;;
50379;SDS011;37474;59.468;18.040;2024-03-02T01:28:41;42.10;;;22.30;;
50379;SDS011;37474;59.468;18.040;2024-03-02T01:31:10;40.77;;;21.70;;
50379;SDS011;37474;59.468;18.040;2024-03-02T01:33:38;53.53;;;21.30;;
50379;SDS011;37474;59.468;18.040;2024-03-02T01:36:06;39.80;;;21.07;;
50379;SDS011;37474;59.468;18.040;2024-03-02T01:38:35;42.37;;;22.33;;
50379;SDS011;37474;59.468;18.040;2024-03-02T01:41:03;45.37;;;20.80;;
50379;SDS011;37474;59.468;18.040;2024-03-02T01:43:31;46.37;;;21.93;;
50379;SDS011;37474;59.468;18.040;2024-03-02T01:45:59;47.80;;;22.07;;
50379;SDS011;37474;59.468;18.040;2024-03-02T01:48:29;47.60;;;22.47;;
50379;SDS011;37474;59.468;18.040;2024-03-02T01:50:57;52.50;;;22.33;;
50379;SDS011;37474;59.468;18.040;2024-03-02T01:53:25;45.83;;;22.30;;
50379;SDS011;37474;59.468;18.040;2024-03-02T01:55:53;46.37;;;22.07;;
50379;SDS011;37474;59.468;18.040;2024-03-02T01:58:21;46.10;;;23.40;;
50379;SDS011;37474;59.468;18.040;2024-03-02T02:00:49;46.23;;;22.33;;
50379;SDS011;37474;59.468;18.040;2024-03-02T02:03:18;47.17;;;22.67;;
50379;SDS011;37474;59.468;18.040;2024-03-02T02:05:47;53.30;;;22.60;;
50379;SDS011;37474;59.468;18.040;2024-03-02T02:08:16;44.17;;;22.00;;
50379;SDS011;37474;59.468;18.040;2024-03-02T02:10:44;50.30;;;23.10;;
50379;SDS011;37474;59.468;18.040;2024-03-02T02:13:12;50.53;;;23.10;;
50379;SDS011;37474;59.468;18.040;2024-03-02T02:15:40;50.07;;;23.63;;
50379;SDS011;37474;59.468;18.040;2024-03-02T02:18:08;51.20;;;23.40;;
50379;SDS011;37474;59.468;18.040;2024-03-02T02:20:36;53.17;;;23.37;;
50379;SDS011;37474;59.468;18.040;2024-03-02T02:23:06;52.20;;;24.23;;
50379;SDS011;37474;59.468;18.040;2024-03-02T02:25:36;49.60;;;23.63;;
50379;SDS011;37474;59.468;18.040;2024-03-02T02:28:04;52.53;;;24.03;;
50379;SDS011;37474;59.468;18.040;2024-03-02T02:30:34;52.35;;;23.48;;
50379;SDS011;37474;59.468;18.040;2024-03-02T02:33:02;47.33;;;23.83;;
50379;SDS011;37474;59.468;18.040;2024-03-02T02:35:30;53.33;;;24.90;;
50379;SDS011;37474;59.468;18.040;2024-03-02T02:37:58;53.00;;;25.30;;
50379;SDS011;37474;59.468;18.040;2024-03-02T02:40:28;55.07;;;25.17;;
50379;SDS011;37474;59.468;18.040;2024-03-02T02:42:57;52.35;;;25.33;;
50379;SDS011;37474;59.468;18.040;2024-03-02T02:45:25;54.77;;;25.60;;
50379;SDS011;37474;59.468;18.040;2024-03-02T02:47:54;51.90;;;23.77;;
50379;SDS011;37474;59.468;18.040;2024-03-02T02:50:23;58.58;;;25.30;;
50379;SDS011;37474;59.468;18.040;2024-03-02T02:52:51;54.93;;;26.10;;
50379;SDS011;37474;59.468;18.040;2024-03-02T02:55:19;58.37;;;25.40;;
50379;SDS011;37474;59.468;18.040;2024-03-02T02:57:49;58.63;;;26.10;;
50379;SDS011;37474;59.468;18.040;2024-03-02T03:00:17;53.70;;;25.42;;
50379;SDS011;37474;59.468;18.040;2024-03-02T03:02:47;53.80;;;25.77;;
50379;SDS011;37474;59.468;18.040;2024-03-02T03:07:45;53.37;;;25.73;;
50379;SDS011;37474;59.468;18.040;2024-03-02T03:10:16;53.17;;;25.53;;
50379;SDS011;37474;59.468;18.040;2024-03-02T03:12:45;53.67;;;25.53;;
50379;SDS011;37474;59.468;18.040;2024-03-02T03:15:15;54.53;;;25.63;;
50379;SDS011;37474;59.468;18.040;2024-03-02T03:17:44;54.17;;;27.13;;
50379;SDS011;37474;59.468;18.040;2024-03-02T03:20:13;60.13;;;26.00;;
50379;SDS011;37474;59.468;18.040;2024-03-02T03:22:42;50.10;;;25.73;;
50379;SDS011;37474;59.468;18.040;2024-03-02T03:25:10;55.97;;;26.33;;
50379;SDS011;37474;59.468;18.040;2024-03-02T03:27:38;62.87;;;26.73;;
50379;SDS011;37474;59.468;18.040;2024-03-02T03:30:08;58.17;;;27.25;;
50379;SDS011;37474;59.468;18.040;2024-03-02T03:32:39;58.67;;;25.90;;
50379;SDS011;37474;59.468;18.040;2024-03-02T03:35:07;60.63;;;26.80;;
50379;SDS011;37474;59.468;18.040;2024-03-02T03:37:35;57.60;;;26.70;;
50379;SDS011;37474;59.468;18.040;2024-03-02T03:40:04;57.03;;;26.30;;
50379;SDS011;37474;59.468;18.040;2024-03-02T03:42:36;61.13;;;28.17;;
50379;SDS011;37474;59.468;18.040;2024-03-02T03:45:06;68.33;;;27.07;;
50379;SDS011;37474;59.468;18.040;2024-03-02T03:47:35;53.00;;;25.85;;
50379;SDS011;37474;59.468;18.040;2024-03-02T03:50:05;64.43;;;27.23;;
50379;SDS011;37474;59.468;18.040;2024-03-02T03:52:34;58.17;;;27.13;;
50379;SDS011;37474;59.468;18.040;2024-03-02T03:55:02;59.03;;;27.13;;
50379;SDS011;37474;59.468;18.040;2024-03-02T03:57:32;54.53;;;27.13;;
50379;SDS011;37474;59.468;18.040;2024-03-02T04:00:00;57.07;;;26.80;;
50379;SDS011;37474;59.468;18.040;2024-03-02T04:02:28;56.93;;;26.97;;
50379;SDS011;37474;59.468;18.040;2024-03-02T04:04:56;58.80;;;27.07;;
50379;SDS011;37474;59.468;18.040;2024-03-02T04:07:26;63.20;;;27.40;;
50379;SDS011;37474;59.468;18.040;2024-03-02T04:09:54;59.55;;;28.08;;
50379;SDS011;37474;59.468;18.040;2024-03-02T04:12:22;58.00;;;27.23;;
50379;SDS011;37474;59.468;18.040;2024-03-02T04:14:50;55.43;;;26.73;;
50379;SDS011;37474;59.468;18.040;2024-03-02T04:17:18;58.73;;;26.87;;
50379;SDS011;37474;59.468;18.040;2024-03-02T04:19:46;49.73;;;25.10;;
50379;SDS011;37474;59.468;18.040;2024-03-02T04:22:14;54.33;;;25.57;;
50379;SDS011;37474;59.468;18.040;2024-03-02T04:24:51;60.97;;;26.77;;
50379;SDS011;37474;59.468;18.040;2024-03-02T04:27:20;59.40;;;26.83;;
50379;SDS011;37474;59.468;18.040;2024-03-02T04:29:51;59.83;;;25.73;;
50379;SDS011;37474;59.468;18.040;2024-03-02T04:32:19;58.67;;;27.03;;
50379;SDS011;37474;59.468;18.040;2024-03-02T04:34:47;56.30;;;26.30;;
50379;SDS011;37474;59.468;18.040;2024-03-02T04:37:17;59.10;;;26.17;;
50379;SDS011;37474;59.468;18.040;2024-03-02T04:39:45;57.70;;;26.30;;
50379;SDS011;37474;59.468;18.040;2024-03-02T04:42:15;56.97;;;26.00;;
50379;SDS011;37474;59.468;18.040;2024-03-02T04:44:43;64.30;;;26.88;;
50379;SDS011;37474;59.468;18.040;2024-03-02T04:47:11;56.23;;;25.67;;
50379;SDS011;37474;59.468;18.040;2024-03-02T04:49:39;61.03;;;26.80;;
50379;SDS011;37474;59.468;18.040;2024-03-02T04:52:07;61.47;;;28.07;;
50379;SDS011;37474;59.468;18.040;2024-03-02T04:54:35;58.30;;;27.07;;
50379;SDS011;37474;59.468;18.040;2024-03-02T04:57:25;57.90;;;26.37;;
50379;SDS011;37474;59.468;18.040;2024-03-02T04:59:53;57.58;;;26.63;;
50379;SDS011;37474;59.468;18.040;2024-03-02T05:02:21;53.60;;;26.83;;
50379;SDS011;37474;59.468;18.040;2024-03-02T05:04:49;57.10;;;27.27;;
50379;SDS011;37474;59.468;18.040;2024-03-02T05:07:17;66.93;;;27.97;;
50379;SDS011;37474;59.468;18.040;2024-03-02T05:09:45;54.93;;;26.27;;
50379;SDS011;37474;59.468;18.040;2024-03-02T05:12:14;59.30;;;27.00;;
50379;SDS011;37474;59.468;18.040;2024-03-02T05:15:15;63.13;;;28.23;;
50379;SDS011;37474;59.468;18.040;2024-03-02T05:17:43;57.22;;;28.10;;
50379;SDS011;37474;59.468;18.040;2024-03-02T05:20:11;63.43;;;28.07;;
50379;SDS011;37474;59.468;18.040;2024-03-02T05:22:39;64.70;;;27.70;;
50379;SDS011;37474;59.468;18.040;2024-03-02T05:25:08;54.83;;;25.57;;
50379;SDS011;37474;59.468;18.040;2024-03-02T05:27:37;61.20;;;27.33;;
50379;SDS011;37474;59.468;18.040;2024-03-02T05:30:08;55.13;;;25.17;;
50379;SDS011;37474;59.468;18.040;2024-03-02T05:32:38;66.83;;;28.07;;
50379;SDS011;37474;59.468;18.040;2024-03-02T05:35:07;66.22;;;27.60;;
50379;SDS011;37474;59.468;18.040;2024-03-02T05:37:37;58.70;;;24.98;;
50379;SDS011;37474;59.468;18.040;2024-03-02T05:40:06;53.17;;;23.90;;
50379;SDS011;37474;59.468;18.040;2024-03-02T05:42:34;52.03;;;24.43;;
50379;SDS011;37474;59.468;18.040;2024-03-02T05:45:03;55.10;;;24.27;;
50379;SDS011;37474;59.468;18.040;2024-03-02T05:47:32;56.97;;;26.10;;
50379;SDS011;37474;59.468;18.040;2024-03-02T05:50:02;55.53;;;26.17;;
50379;SDS011;37474;59.468;18.040;2024-03-02T05:52:30;54.38;;;25.90;;
50379;SDS011;37474;59.468;18.040;2024-03-02T05:54:59;57.10;;;26.70;;
50379;SDS011;37474;59.468;18.040;2024-03-02T05:57:27;64.37;;;27.30;;
50379;SDS011;37474;59.468;18.040;2024-03-02T06:00:12;62.20;;;26.43;;
50379;SDS011;37474;59.468;18.040;2024-03-02T06:02:43;58.63;;;26.43;;
50379;SDS011;37474;59.468;18.040;2024-03-02T06:05:13;67.30;;;27.17;;
50379;SDS011;37474;59.468;18.040;2024-03-02T06:07:41;55.28;;;26.00;;
50379;SDS011;37474;59.468;18.040;2024-03-02T06:10:10;66.27;;;26.33;;
50379;SDS011;37474;59.468;18.040;2024-03-02T06:12:40;60.17;;;26.27;;
50379;SDS011;37474;59.468;18.040;2024-03-02T06:15:08;58.83;;;25.83;;
50379;SDS011;37474;59.468;18.040;2024-03-02T06:17:37;59.20;;;26.13;;
50379;SDS011;37474;59.468;18.040;2024-03-02T06:20:05;58.70;;;26.63;;
50379;SDS011;37474;59.468;18.040;2024-03-02T06:22:37;56.70;;;26.17;;
50379;SDS011;37474;59.468;18.040;2024-03-02T06:25:07;57.43;;;25.53;;
50379;SDS011;37474;59.468;18.040;2024-03-02T06:27:35;62.17;;;25.87;;
50379;SDS011;37474;59.468;18.040;2024-03-02T06:30:04;63.20;;;26.97;;
50379;SDS011;37474;59.468;18.040;2024-03-02T06:32:32;57.07;;;25.13;;
50379;SDS011;37474;59.468;18.040;2024-03-02T06:35:00;58.57;;;26.07;;
50379;SDS011;37474;59.468;18.040;2024-03-02T06:37:30;52.10;;;24.30;;
50379;SDS011;37474;59.468;18.040;2024-03-02T06:40:00;65.07;;;25.13;;
50379;SDS011;37474;59.468;18.040;2024-03-02T06:42:28;55.75;;;24.00;;
50379;SDS011;37474;59.468;18.040;2024-03-02T06:45:00;59.07;;;24.80;;
50379;SDS011;37474;59.468;18.040;2024-03-02T06:47:28;55.07;;;24.00;;
50379;SDS011;37474;59.468;18.040;2024-03-02T06:49:56;54.03;;;24.00;;
50379;SDS011;37474;59.468;18.040;2024-03-02T06:52:26;53.80;;;24.33;;
50379;SDS011;37474;59.468;18.040;2024-03-02T06:54:54;48.87;;;23.23;;
50379;SDS011;37474;59.468;18.040;2024-03-02T06:57:24;54.37;;;23.20;;
50379;SDS011;37474;59.468;18.040;2024-03-02T06:59:52;48.83;;;23.92;;
50379;SDS011;37474;59.468;18.040;2024-03-02T07:02:21;52.00;;;23.00;;
50379;SDS011;37474;59.468;18.040;2024-03-02T07:04:49;49.40;;;23.10;;
50379;SDS011;37474;59.468;18.040;2024-03-02T07:07:17;48.43;;;21.50;;
50379;SDS011;37474;59.468;18.040;2024-03-02T07:09:45;46.40;;;22.03;;
50379;SDS011;37474;59.468;18.040;2024-03-02T07:12:14;47.00;;;21.27;;
50379;SDS011;37474;59.468;18.040;2024-03-02T07:14:43;47.63;;;21.90;;
50379;SDS011;37474;59.468;18.040;2024-03-02T07:17:29;48.37;;;21.50;;
50379;SDS011;37474;59.468;18.040;2024-03-02T07:19:57;43.13;;;21.40;;
50379;SDS011;37474;59.468;18.040;2024-03-02T07:22:25;48.17;;;22.10;;
50379;SDS011;37474;59.468;18.040;2024-03-02T07:24:53;47.73;;;22.63;;
50379;SDS011;37474;59.468;18.040;2024-03-02T07:27:25;44.50;;;21.70;;
50379;SDS011;37474;59.468;18.040;2024-03-02T07:29:54;46.77;;;22.27;;
50379;SDS011;37474;59.468;18.040;2024-03-02T07:32:22;41.05;;;20.20;;
50379;SDS011;37474;59.468;18.040;2024-03-02T07:34:50;47.47;;;20.77;;
50379;SDS011;37474;59.468;18.040;2024-03-02T07:37:18;47.30;;;20.60;;
50379;SDS011;37474;59.468;18.040;2024-03-02T07:39:50;46.00;;;20.77;;
50379;SDS011;37474;59.468;18.040;2024-03-02T07:42:19;42.93;;;20.17;;
50379;SDS011;37474;59.468;18.040;2024-03-02T07:44:47;42.97;;;20.27;;
50379;SDS011;37474;59.468;18.040;2024-03-02T07:47:16;36.57;;;19.63;;
50379;SDS011;37474;59.468;18.040;2024-03-02T07:49:44;40.57;;;18.47;;
50379;SDS011;37474;59.468;18.040;2024-03-02T07:52:13;37.23;;;19.47;;
50379;SDS011;37474;59.468;18.040;2024-03-02T07:54:42;42.73;;;19.77;;
50379;SDS011;37474;59.468;18.040;2024-03-02T07:57:10;46.93;;;20.27;;
50379;SDS011;37474;59.468;18.040;2024-03-02T07:59:38;40.83;;;19.93;;
50379;SDS011;37474;59.468;18.040;2024-03-02T08:02:06;41.67;;;19.40;;
50379;SDS011;37474;59.468;18.040;2024-03-02T08:04:36;41.67;;;19.10;;
50379;SDS011;37474;59.468;18.040;2024-03-02T08:07:04;38.10;;;18.80;;
50379;SDS011;37474;59.468;18.040;2024-03-02T08:09:32;40.30;;;18.53;;
50379;SDS011;37474;59.468;18.040;2024-03-02T08:12:00;36.37;;;17.63;;
50379;SDS011;37474;59.468;18.040;2024-03-02T08:14:28;34.23;;;17.30;;
50379;SDS011;37474;59.468;18.040;2024-03-02T08:16:56;34.37;;;17.23;;
50379;SDS011;37474;59.468;18.040;2024-03-02T08:19:24;38.63;;;17.23;;
50379;SDS011;37474;59.468;18.040;2024-03-02T08:21:54;33.57;;;15.87;;
50379;SDS011;37474;59.468;18.040;2024-03-02T08:24:22;31.85;;;17.20;;
50379;SDS011;37474;59.468;18.040;2024-03-02T08:26:50;33.93;;;17.43;;
50379;SDS011;37474;59.468;18.040;2024-03-02T08:29:19;30.87;;;17.20;;
50379;SDS011;37474;59.468;18.040;2024-03-02T08:31:47;33.07;;;16.40;;
50379;SDS011;37474;59.468;18.040;2024-03-02T08:34:18;32.17;;;16.50;;
50379;SDS011;37474;59.468;18.040;2024-03-02T08:36:46;37.93;;;17.97;;
50379;SDS011;37474;59.468;18.040;2024-03-02T08:39:16;33.83;;;15.90;;
50379;SDS011;37474;59.468;18.040;2024-03-02T08:41:46;33.03;;;16.07;;
50379;SDS011;37474;59.468;18.040;2024-03-02T08:44:14;34.37;;;15.97;;
50379;SDS011;37474;59.468;18.040;2024-03-02T08:46:43;30.43;;;15.60;;
50379;SDS011;37474;59.468;18.040;2024-03-02T08:49:11;33.07;;;15.67;;
50379;SDS011;37474;59.468;18.040;2024-03-02T08:51:40;34.80;;;16.00;;
50379;SDS011;37474;59.468;18.040;2024-03-02T08:54:08;36.10;;;16.30;;
50379;SDS011;37474;59.468;18.040;2024-03-02T08:56:37;29.90;;;15.63;;
50379;SDS011;37474;59.468;18.040;2024-03-02T08:59:05;31.30;;;14.88;;
50379;SDS011;37474;59.468;18.040;2024-03-02T09:01:33;30.37;;;15.93;;
50379;SDS011;37474;59.468;18.040;2024-03-02T09:04:01;31.63;;;16.30;;
50379;SDS011;37474;59.468;18.040;2024-03-02T09:06:30;29.97;;;15.17;;
50379;SDS011;37474;59.468;18.040;2024-03-02T09:08:58;28.73;;;14.77;;
50379;SDS011;37474;59.468;18.040;2024-03-02T09:11:26;29.77;;;15.13;;
50379;SDS011;37474;59.468;18.040;2024-03-02T09:13:56;32.30;;;16.17;;
50379;SDS011;37474;59.468;18.040;2024-03-02T09:16:24;30.10;;;15.38;;
50379;SDS011;37474;59.468;18.040;2024-03-02T09:18:57;28.37;;;15.20;;
50379;SDS011;37474;59.468;18.040;2024-03-02T09:21:25;28.33;;;15.03;;
50379;SDS011;37474;59.468;18.040;2024-03-02T09:23:53;27.90;;;15.13;;
50379;SDS011;37474;59.468;18.040;2024-03-02T09:26:23;32.28;;;16.67;;
50379;SDS011;37474;59.468;18.040;2024-03-02T09:28:53;29.95;;;15.45;;
50379;SDS011;37474;59.468;18.040;2024-03-02T09:31:22;35.27;;;14.90;;
50379;SDS011;37474;59.468;18.040;2024-03-02T09:33:50;30.27;;;14.90;;
50379;SDS011;37474;59.468;18.040;2024-03-02T09:36:21;27.70;;;14.87;;
50379;SDS011;37474;59.468;18.040;2024-03-02T09:38:50;30.93;;;15.30;;
50379;SDS011;37474;59.468;18.040;2024-03-02T09:41:18;30.40;;;14.47;;
50379;SDS011;37474;59.468;18.040;2024-03-02T09:43:46;27.33;;;15.23;;
50379;SDS011;37474;59.468;18.040;2024-03-02T09:46:15;27.80;;;15.10;;
50379;SDS011;37474;59.468;18.040;2024-03-02T09:48:45;30.70;;;15.27;;
50379;SDS011;37474;59.468;18.040;2024-03-02T09:51:13;27.58;;;14.73;;
50379;SDS011;37474;59.468;18.040;2024-03-02T09:53:41;25.73;;;14.60;;
50379;SDS011;37474;59.468;18.040;2024-03-02T09:56:10;24.30;;;13.50;;
50379;SDS011;37474;59.468;18.040;2024-03-02T09:58:38;25.13;;;14.80;;
50379;SDS011;37474;59.468;18.040;2024-03-02T10:01:06;23.87;;;14.00;;
50379;SDS011;37474;59.468;18.040;2024-03-02T10:03:34;22.60;;;13.53;;
50379;SDS011;37474;59.468;18.040;2024-03-02T10:06:22;26.53;;;13.60;;
50379;SDS011;37474;59.468;18.040;2024-03-02T10:08:51;22.17;;;12.83;;
50379;SDS011;37474;59.468;18.040;2024-03-02T10:11:27;30.60;;;13.68;;
50379;SDS011;37474;59.468;18.040;2024-03-02T10:14:04;25.17;;;12.50;;
50379;SDS011;37474;59.468;18.040;2024-03-02T10:16:35;22.17;;;12.93;;
50379;SDS011;37474;59.468;18.040;2024-03-02T10:21:49;23.97;;;13.10;;
50379;SDS011;37474;59.468;18.040;2024-03-02T10:24:18;26.20;;;13.97;;
50379;SDS011;37474;59.468;18.040;2024-03-02T10:26:47;23.83;;;13.60;;
50379;SDS011;37474;59.468;18.040;2024-03-02T10:29:16;28.30;;;13.87;;
50379;SDS011;37474;59.468;18.040;2024-03-02T10:31:44;27.13;;;13.40;;
50379;SDS011;37474;59.468;18.040;2024-03-02T10:34:13;23.40;;;13.20;;
50379;SDS011;37474;59.468;18.040;2024-03-02T10:36:43;31.80;;;14.15;;
50379;SDS011;37474;59.468;18.040;2024-03-02T10:39:14;28.45;;;14.05;;
50379;SDS011;37474;59.468;18.040;2024-03-02T10:41:42;26.95;;;13.25;;
50379;SDS011;37474;59.468;18.040;2024-03-02T10:44:13;26.43;;;13.23;;
50379;SDS011;37474;59.468;18.040;2024-03-02T10:46:41;24.13;;;13.37;;
50379;SDS011;37474;59.468;18.040;2024-03-02T10:49:12;27.00;;;14.50;;
50379;SDS011;37474;59.468;18.040;2024-03-02T10:51:41;26.43;;;14.13;;
50379;SDS011;37474;59.468;18.040;2024-03-02T10:54:09;29.70;;;14.27;;
50379;SDS011;37474;59.468;18.040;2024-03-02T10:56:39;26.20;;;13.80;;
50379;SDS011;37474;59.468;18.040;2024-03-02T10:59:11;29.27;;;14.13;;
50379;SDS011;37474;59.468;18.040;2024-03-02T11:01:47;22.97;;;13.30;;
50379;SDS011;37474;59.468;18.040;2024-03-02T11:04:16;25.85;;;13.75;;
50379;SDS011;37474;59.468;18.040;2024-03-02T11:06:47;25.13;;;13.30;;
50379;SDS011;37474;59.468;18.040;2024-03-02T11:09:18;24.43;;;13.27;;
50379;SDS011;37474;59.468;18.040;2024-03-02T11:11:49;25.77;;;13.60;;
50379;SDS011;37474;59.468;18.040;2024-03-02T11:14:28;25.58;;;13.88;;
50379;SDS011;37474;59.468;18.040;2024-03-02T11:16:58;23.57;;;13.17;;
50379;SDS011;37474;59.468;18.040;2024-03-02T11:19:30;24.23;;;12.97;;
50379;SDS011;37474;59.468;18.040;2024-03-02T11:21:59;24.83;;;13.00;;
50379;SDS011;37474;59.468;18.040;2024-03-02T11:24:28;24.57;;;12.20;;
50379;SDS011;37474;59.468;18.040;2024-03-02T11:27:05;23.60;;;13.23;;
50379;SDS011;37474;59.468;18.040;2024-03-02T11:29:44;24.00;;;13.43;;
50379;SDS011;37474;59.468;18.040;2024-03-02T11:32:13;25.10;;;13.50;;
50379;SDS011;37474;59.468;18.040;2024-03-02T11:34:43;23.05;;;13.23;;
50379;SDS011;37474;59.468;18.040;2024-03-02T11:37:13;26.08;;;12.65;;
50379;SDS011;37474;59.468;18.040;2024-03-02T11:39:43;26.60;;;13.13;;
50379;SDS011;37474;59.468;18.040;2024-03-02T11:42:13;19.38;;;11.52;;
50379;SDS011;37474;59.468;18.040;2024-03-02T11:47:11;28.33;;;13.47;;
50379;SDS011;37474;59.468;18.040;2024-03-02T11:49:45;23.90;;;12.33;;
50379;SDS011;37474;59.468;18.040;2024-03-02T11:52:16;25.23;;;12.93;;
50379;SDS011;37474;59.468;18.040;2024-03-02T11:54:46;27.80;;;12.85;;
50379;SDS011;37474;59.468;18.040;2024-03-02T11:57:17;22.25;;;12.45;;
50379;SDS011;37474;59.468;18.040;2024-03-02T11:59:47;24.27;;;12.43;;
50379;SDS011;37474;59.468;18.040;2024-03-02T12:02:16;22.67;;;13.17;;
50379;SDS011;37474;59.468;18.040;2024-03-02T12:04:46;24.80;;;12.73;;
50379;SDS011;37474;59.468;18.040;2024-03-02T12:07:18;24.50;;;12.57;;
50379;SDS011;37474;59.468;18.040;2024-03-02T12:09:47;25.33;;;12.90;;
50379;SDS011;37474;59.468;18.040;2024-03-02T12:12:16;25.67;;;12.23;;
50379;SDS011;37474;59.468;18.040;2024-03-02T12:14:50;24.23;;;12.43;;
50379;SDS011;37474;59.468;18.040;2024-03-02T12:17:19;24.33;;;12.10;;
50379;SDS011;37474;59.468;18.040;2024-03-02T12:19:47;25.33;;;13.23;;
50379;SDS011;37474;59.468;18.040;2024-03-02T12:22:15;23.53;;;11.80;;
50379;SDS011;37474;59.468;18.040;2024-03-02T12:24:44;22.07;;;12.30;;
50379;SDS011;37474;59.468;18.040;2024-03-02T12:27:13;24.47;;;12.77;;
50379;SDS011;37474;59.468;18.040;2024-03-02T12:29:44;21.58;;;11.88;;
50379;SDS011;37474;59.468;18.040;2024-03-02T12:32:12;24.52;;;12.90;;
50379;SDS011;37474;59.468;18.040;2024-03-02T12:34:40;22.00;;;12.47;;
50379;SDS011;37474;59.468;18.040;2024-03-02T12:37:11;21.83;;;11.80;;
50379;SDS011;37474;59.468;18.040;2024-03-02T12:39:39;24.47;;;11.83;;
50379;SDS011;37474;59.468;18.040;2024-03-02T12:42:07;26.37;;;12.07;;
50379;SDS011;37474;59.468;18.040;2024-03-02T12:44:35;20.23;;;12.17;;
50379;SDS011;37474;59.468;18.040;2024-03-02T12:47:05;22.37;;;11.80;;
50379;SDS011;37474;59.468;18.040;2024-03-02T12:49:34;22.30;;;11.80;;
50379;SDS011;37474;59.468;18.040;2024-03-02T12:52:03;25.47;;;12.57;;
50379;SDS011;37474;59.468;18.040;2024-03-02T12:54:31;27.87;;;11.77;;
50379;SDS011;37474;59.468;18.040;2024-03-02T12:57:01;18.43;;;11.57;;
50379;SDS011;37474;59.468;18.040;2024-03-02T12:59:46;26.23;;;12.43;;
50379;SDS011;37474;59.468;18.040;2024-03-02T13:02:16;22.60;;;11.83;;
50379;SDS011;37474;59.468;18.040;2024-03-02T13:04:52;20.37;;;11.60;;
50379;SDS011;37474;59.468;18.040;2024-03-02T13:07:20;20.77;;;12.40;;
50379;SDS011;37474;59.468;18.040;2024-03-02T13:09:49;25.77;;;12.37;;
50379;SDS011;37474;59.468;18.040;2024-03-02T13:12:22;23.90;;;12.07;;
50379;SDS011;37474;59.468;18.040;2024-03-02T13:14:52;21.20;;;12.10;;
50379;SDS011;37474;59.468;18.040;2024-03-02T13:19:51;21.23;;;12.10;;
50379;SDS011;37474;59.468;18.040;2024-03-02T13:22:20;22.30;;;11.33;;
50379;SDS011;37474;59.468;18.040;2024-03-02T13:24:49;22.63;;;11.93;;
50379;SDS011;37474;59.468;18.040;2024-03-02T13:27:17;22.17;;;11.07;;
50379;SDS011;37474;59.468;18.040;2024-03-02T13:29:47;27.30;;;11.50;;
50379;SDS011;37474;59.468;18.040;2024-03-02T13:32:16;26.80;;;11.67;;
50379;SDS011;37474;59.468;18.040;2024-03-02T13:34:47;22.20;;;11.17;;
50379;SDS011;37474;59.468;18.040;2024-03-02T13:37:15;19.80;;;10.77;;
50379;SDS011;37474;59.468;18.040;2024-03-02T13:39:43;21.17;;;10.73;;
50379;SDS011;37474;59.468;18.040;2024-03-02T13:42:11;20.47;;;10.93;;
50379;SDS011;37474;59.468;18.040;2024-03-02T13:44:41;22.75;;;11.65;;
50379;SDS011;37474;59.468;18.040;2024-03-02T13:47:12;22.33;;;11.67;;
50379;SDS011;37474;59.468;18.040;2024-03-02T13:49:41;20.03;;;10.50;;
50379;SDS011;37474;59.468;18.040;2024-03-02T13:52:12;19.93;;;10.87;;
50379;SDS011;37474;59.468;18.040;2024-03-02T13:54:40;22.93;;;11.30;;
50379;SDS011;37474;59.468;18.040;2024-03-02T13:57:10;21.43;;;11.20;;
50379;SDS011;37474;59.468;18.040;2024-03-02T13:59:39;22.33;;;11.82;;
50379;SDS011;37474;59.468;18.040;2024-03-02T14:02:08;19.63;;;11.48;;
50379;SDS011;37474;59.468;18.040;2024-03-02T14:04:36;28.20;;;10.87;;
50379;SDS011;37474;59.468;18.040;2024-03-02T14:07:07;23.30;;;11.37;;
50379;SDS011;37474;59.468;18.040;2024-03-02T14:09:35;17.85;;;11.43;;
50379;SDS011;37474;59.468;18.040;2024-03-02T14:12:03;20.53;;;11.00;;
50379;SDS011;37474;59.468;18.040;2024-03-02T14:14:32;20.60;;;11.43;;
50379;SDS011;37474;59.468;18.040;2024-03-02T14:17:01;22.00;;;11.83;;
50379;SDS011;37474;59.468;18.040;2024-03-02T14:19:30;22.38;;;10.85;;
50379;SDS011;37474;59.468;18.040;2024-03-02T14:21:58;22.23;;;11.50;;
50379;SDS011;37474;59.468;18.040;2024-03-02T14:24:28;27.87;;;12.03;;
50379;SDS011;37474;59.468;18.040;2024-03-02T14:26:56;22.30;;;11.43;;
50379;SDS011;37474;59.468;18.040;2024-03-02T14:29:40;24.10;;;12.00;;
50379;SDS011;37474;59.468;18.040;2024-03-02T14:32:08;23.53;;;12.40;;
50379;SDS011;37474;59.468;18.040;2024-03-02T14:34:37;21.60;;;11.27;;